Date,TemperatureHighF,TemperatureAvgF,TemperatureLowF,DewpointHighF,DewpointAvgF,DewpointLowF,HumidityHigh,HumidityAvg,HumidityLow,PressureMaxIn,PressureMinIn,WindSpeedMaxMPH,WindSpeedAvgMPH,GustSpeedMaxMPH,PrecipitationSumIn
2013-1-1,46.6,40.5,35.4,44.7,35.3,26.5,94,82,69,30.20,29.92,13,6,13,0.01
2013-1-2,42.3,34.9,27.7,29.6,27.1,22.6,85,73,59,30.26,30.15,9,3,9,0.00
2013-1-3,50.2,38.7,26.2,31.7,27.6,22.6,92,67,40,30.37,30.23,14,3,14,0.00
2013-1-4,52.5,44.7,39.9,35.0,31.5,29.5,71,60,43,30.42,30.25,8,2,8,0.00
2013-1-5,57.4,45.0,35.8,40.6,36.8,31.4,93,74,46,30.26,30.09,11,3,11,0.00
2013-1-6,58.1,42.3,31.6,32.5,25.6,17.2,91,57,21,30.30,30.18,11,3,11,0.00
2013-1-7,56.8,41.7,26.1,35.1,29.5,21.6,89,64,39,30.24,29.99,13,2,13,0.00
2013-1-8,49.5,47.5,45.9,48.3,42.4,33.2,99,84,61,30.01,29.86,13,4,13,1.19
2013-1-9,57.2,53.8,47.8,56.8,53.5,47.6,99,99,97,30.02,29.80,27,8,27,0.97
2013-1-10,60.3,54.9,49.6,56.4,50.1,0.2,99,85,10,29.88,29.79,17,5,17,0.02
2013-1-11,72.7,60.9,48.4,63.3,50.6,43.6,92,71,36,29.84,29.64,24,6,24,0.00
2013-1-12,66.4,54.4,35.2,64.7,50.6,27.1,99,87,66,29.87,29.58,21,6,21,0.07
2013-1-13,43.5,36.1,31.3,27.3,21.1,17.7,72,55,41,30.19,29.83,18,8,18,0.00
2013-1-14,45.9,36.2,29.3,25.8,19.6,16.0,61,51,35,30.25,30.11,17,7,17,0.00
2013-1-15,38.7,34.8,30.0,29.9,24.8,18.0,94,67,51,30.15,30.06,17,6,17,0.02
2013-1-16,50.9,37.4,25.0,28.7,17.9,7.2,72,49,18,30.21,30.06,12,2,12,0.00
2013-1-17,61.2,45.0,30.4,33.6,28.7,23.5,81,56,24,30.39,30.14,14,2,14,0.00
2013-1-18,63.7,47.2,29.5,39.7,31.4,25.6,94,59,24,30.40,30.15,17,4,17,0.00
2013-1-19,69.6,54.0,37.9,45.9,40.3,33.2,89,62,36,30.16,29.72,16,4,16,0.00
2013-1-20,71.6,54.6,36.5,48.1,40.8,34.2,99,65,27,29.73,29.56,10,2,10,0.00
2013-1-21,56.8,46.7,41.0,43.1,31.2,22.9,91,57,36,29.83,29.62,14,4,14,0.00
2013-1-22,68.4,51.5,37.0,47.9,37.8,27.3,82,61,41,29.82,29.67,16,3,16,0.00
2013-1-23,77.4,63.2,51.3,56.2,52.2,46.4,90,69,42,29.78,29.62,21,5,21,0.00
2013-1-24,82.2,63.9,49.5,59.1,52.7,43.8,99,70,42,29.69,29.52,11,3,11,0.00
2013-1-25,54.1,48.5,45.3,49.0,43.2,38.5,99,82,68,29.73,29.55,12,4,12,0.00
2013-1-26,55.4,49.6,45.5,50.3,45.6,39.1,99,86,72,29.75,29.60,9,4,9,0.00
2013-1-27,76.3,63.4,50.4,64.0,57.3,50.1,99,83,52,29.61,29.41,21,7,21,0.00
2013-1-28,78.3,72.3,67.5,66.7,64.6,62.3,92,78,59,29.51,29.34,23,9,23,0.00
2013-1-29,80.1,67.1,53.6,67.3,58.8,28.0,95,76,34,29.35,28.95,24,9,24,0.26
2013-1-30,54.7,47.0,35.1,36.6,24.0,7.7,70,44,16,29.66,29.18,30,6,30,0.00
2013-1-31,71.4,50.7,31.1,31.4,20.2,6.7,73,39,10,29.84,29.58,30,5,30,0.00